createdAt,value
2023-04-16T18:07:32.483Z,11.00
2023-04-16T18:10:35.152Z,11.18
2023-04-16T18:13:37.589Z,11.23
2023-04-16T18:16:40.125Z,11.95
2023-04-16T18:19:44.404Z,12.27
2023-04-16T18:22:48.253Z,12.65
2023-04-16T18:25:50.721Z,12.40
2023-04-16T18:28:53.153Z,13.15
2023-04-16T18:31:56.565Z,12.02
2023-04-16T18:34:59.078Z,11.18
2023-04-16T18:38:02.856Z,12.98
2023-04-16T18:41:05.269Z,12.55
2023-04-16T18:44:07.687Z,12.57
2023-04-16T18:47:10.346Z,12.70
2023-04-16T18:50:12.906Z,11.73
2023-04-16T18:53:16.773Z,11.55
2023-04-16T18:56:19.093Z,12.55
2023-04-16T18:59:21.482Z,12.02
2023-04-16T19:02:23.953Z,12.88
2023-04-16T19:05:26.495Z,13.05
2023-04-16T19:08:30.528Z,12.68
2023-04-16T19:11:33.036Z,13.68
2023-04-16T19:14:35.660Z,12.88
2023-04-16T19:17:39.547Z,13.30
2023-04-16T19:20:42.226Z,14.10
2023-04-16T19:23:47.462Z,12.93
2023-04-16T19:26:49.906Z,12.50
2023-04-16T19:29:52.311Z,12.27
2023-04-16T19:32:55.556Z,13.10
2023-04-16T19:35:58.340Z,12.10
2023-04-16T19:39:02.475Z,12.65
2023-04-16T19:42:04.889Z,13.20
2023-04-16T19:45:08.272Z,13.38
2023-04-16T19:48:11.303Z,12.85
2023-04-16T19:51:13.690Z,12.35
2023-04-16T19:54:17.783Z,12.95
2023-04-16T19:57:20.344Z,11.45
2023-04-16T20:00:23.098Z,11.75
2023-04-16T20:03:25.491Z,11.93
2023-04-16T20:06:27.866Z,12.73
2023-04-16T20:09:31.618Z,13.05
2023-04-16T20:12:33.990Z,11.57
2023-04-16T20:15:36.404Z,13.30
2023-04-16T20:18:41.107Z,13.57
2023-04-16T20:21:43.666Z,12.15
2023-04-16T20:24:48.195Z,15.02
2023-04-16T20:27:50.738Z,12.13
2023-04-16T20:30:53.158Z,12.35
2023-04-16T20:33:55.572Z,13.35
2023-04-16T20:36:58.051Z,13.30
2023-04-16T20:40:01.798Z,13.38
2023-04-16T20:43:04.897Z,12.73
2023-04-16T20:46:07.450Z,12.77
2023-04-16T20:49:10.246Z,12.30
2023-04-16T20:52:12.951Z,13.05
2023-04-16T20:55:16.847Z,12.57
2023-04-16T20:58:19.153Z,11.70
2023-04-16T21:01:21.466Z,12.85
2023-04-16T21:04:23.913Z,13.27
2023-04-16T21:07:26.362Z,11.57
2023-04-16T21:10:30.051Z,12.60
2023-04-16T21:13:32.454Z,12.38
2023-04-16T21:16:34.763Z,12.88
2023-04-16T21:19:37.109Z,12.25
2023-04-16T21:22:39.466Z,11.55
2023-04-16T21:25:43.119Z,13.00
2023-04-16T21:28:45.481Z,12.63
2023-04-16T21:31:47.822Z,11.23
2023-04-16T21:34:50.277Z,11.73
2023-04-16T21:37:52.682Z,11.32
2023-04-16T21:40:56.794Z,11.48
2023-04-16T21:44:00.177Z,12.35
2023-04-16T21:47:05.347Z,12.52
2023-04-16T21:50:08.555Z,13.93
2023-04-16T21:53:10.884Z,12.57
2023-04-16T21:56:14.858Z,12.68
2023-04-16T21:59:17.253Z,12.52
2023-04-16T22:02:21.762Z,12.95
2023-04-16T22:05:24.254Z,12.68
2023-04-16T22:08:27.266Z,13.38
2023-04-16T22:11:30.896Z,13.32
2023-04-16T22:14:34.695Z,13.68
2023-04-16T22:17:37.139Z,14.52
2023-04-16T22:20:39.870Z,14.02
2023-04-16T22:23:42.206Z,13.77
2023-04-16T22:26:45.907Z,13.38
2023-04-16T22:29:48.208Z,13.95
2023-04-16T22:32:50.479Z,14.20
2023-04-16T22:35:52.923Z,14.88
2023-04-16T22:38:55.303Z,14.07
2023-04-16T22:41:59.051Z,14.10
2023-04-16T22:45:01.474Z,14.07
2023-04-16T22:48:04.152Z,13.95
2023-04-16T22:51:08.510Z,14.82
2023-04-16T22:54:13.759Z,14.65
2023-04-16T22:57:21.000Z,15.18
2023-04-16T23:00:25.589Z,15.35
2023-04-16T23:03:27.960Z,15.93
2023-04-16T23:06:31.476Z,15.55
2023-04-16T23:09:34.204Z,15.20
2023-04-16T23:12:37.770Z,16.10
2023-04-16T23:15:40.113Z,16.02
2023-04-16T23:18:42.440Z,15.07
2023-04-16T23:21:44.720Z,18.45
2023-04-16T23:24:46.988Z,17.90
2023-04-16T23:27:50.740Z,18.30
2023-04-16T23:30:53.219Z,18.50
2023-04-16T23:33:55.521Z,17.80
2023-04-16T23:36:57.802Z,18.95
2023-04-16T23:40:00.118Z,19.38
2023-04-16T23:43:03.800Z,18.63
2023-04-16T23:46:06.283Z,20.20
2023-04-16T23:49:08.785Z,18.60
2023-04-16T23:52:11.149Z,19.50
2023-04-16T23:55:13.494Z,19.63
2023-04-16T23:58:17.156Z,19.17
